Time;durP1;ratioP1;P1;durP2;ratioP2;P2;SDS_P1;SDS_P2;PMS_P1;PMS_P2;Temp;Humidity;BMP_temperature;BMP_pressure;BME280_temperature;BME280_humidity;BME280_pressure;Samples;Min_cycle;Max_cycle;Signal;HPM_P1;HPM_P2
2021/12/11 00:00:33;;;;;;;39.53;23.13;;;-0.60;99.90;;;;;;5071901;28;20047;-74
2021/12/11 00:03:16;;;;;;;34.40;18.98;;;-0.60;99.90;;;;;;5062517;28;20561;-74
2021/12/11 00:05:47;;;;;;;33.08;18.35;;;-0.60;99.90;;;;;;5074799;28;20040;-74
2021/12/11 00:08:18;;;;;;;32.63;18.80;;;-0.60;99.90;;;;;;5110651;28;20111;-74
2021/12/11 00:10:49;;;;;;;30.25;17.25;;;-0.60;99.90;;;;;;5088956;28;20044;-74
2021/12/11 00:13:21;;;;;;;27.75;17.13;;;-0.60;99.90;;;;;;5092904;28;20523;-74
2021/12/11 00:15:48;;;;;;;27.52;16.55;;;-0.60;99.90;;;;;;5107109;28;20054;-74
2021/12/11 00:18:21;;;;;;;31.13;17.80;;;-0.60;99.90;;;;;;5075323;28;20144;-74
2021/12/11 00:20:58;;;;;;;31.02;17.67;;;-0.60;99.90;;;;;;5111968;28;20047;-74
2021/12/11 00:23:42;;;;;;;32.60;17.25;;;-0.60;99.90;;;;;;5112553;28;20059;-74
2021/12/11 00:26:11;;;;;;;33.65;16.77;;;-0.60;99.90;;;;;;5112717;28;20048;-74
2021/12/11 00:28:48;;;;;;;31.55;16.85;;;-0.60;99.90;;;;;;5112369;28;20035;-73
2021/12/11 00:31:15;;;;;;;28.83;16.02;;;-0.70;99.90;;;;;;5094008;28;20059;-74
2021/12/11 00:33:41;;;;;;;26.50;15.63;;;-0.70;99.90;;;;;;5094138;28;20055;-73
2021/12/11 00:36:10;;;;;;;30.25;16.15;;;-0.70;99.90;;;;;;5112018;28;20047;-74
2021/12/11 00:38:37;;;;;;;29.42;15.95;;;-0.70;99.90;;;;;;5094027;28;20050;-74
2021/12/11 00:41:08;;;;;;;33.45;18.45;;;-0.70;99.90;;;;;;5094205;28;20193;-73
2021/12/11 00:43:35;;;;;;;31.55;17.02;;;-0.70;99.90;;;;;;5093813;28;20501;-74
2021/12/11 00:46:07;;;;;;;31.98;16.65;;;-0.70;99.90;;;;;;5093341;28;20055;-73
2021/12/11 00:48:33;;;;;;;45.35;23.67;;;-0.70;99.90;;;;;;5093864;28;20122;-74
2021/12/11 00:51:06;;;;;;;48.05;27.73;;;-0.70;99.90;;;;;;5093901;28;20054;-74
2021/12/11 00:53:40;;;;;;;45.30;25.58;;;-0.70;99.90;;;;;;5077050;28;20062;-74
2021/12/11 00:56:21;;;;;;;44.90;24.02;;;-0.80;99.90;;;;;;5089904;28;20422;-74
2021/12/11 00:58:50;;;;;;;49.15;25.23;;;-0.80;99.90;;;;;;5090085;28;20100;-74
2021/12/11 01:01:28;;;;;;;48.65;22.88;;;-0.80;99.90;;;;;;5091407;28;20040;-74
2021/12/11 01:04:04;;;;;;;40.38;22.35;;;-0.70;99.90;;;;;;5090033;28;20048;-74
2021/12/11 01:06:38;;;;;;;40.60;21.80;;;-0.80;99.90;;;;;;5089434;28;20055;-74
2021/12/11 01:09:14;;;;;;;36.92;20.42;;;-0.80;99.90;;;;;;5090180;28;20052;-74
2021/12/11 01:11:47;;;;;;;37.00;19.52;;;-0.80;99.90;;;;;;5090007;28;20086;-74
2021/12/11 01:14:38;;;;;;;36.60;18.27;;;-0.80;99.90;;;;;;5091115;28;20087;-74
2021/12/11 01:17:30;;;;;;;31.98;18.40;;;-0.80;99.90;;;;;;5082727;28;20096;-74
2021/12/11 01:19:59;;;;;;;40.45;26.33;;;-0.80;99.90;;;;;;5088575;28;20509;-74
2021/12/11 01:22:36;;;;;;;35.08;17.80;;;-0.80;99.90;;;;;;5090160;28;20051;-74
2021/12/11 01:25:11;;;;;;;38.78;20.08;;;-0.80;99.90;;;;;;5091017;28;20083;-74
2021/12/11 01:27:42;;;;;;;37.85;18.67;;;-0.80;99.90;;;;;;5089707;28;20040;-74
2021/12/11 01:30:23;;;;;;;38.55;19.95;;;-0.90;99.90;;;;;;5089234;28;20495;-74
2021/12/11 01:32:48;;;;;;;38.35;19.50;;;-0.90;99.90;;;;;;5072960;28;20419;-74
2021/12/11 01:35:17;;;;;;;47.55;21.60;;;-0.90;99.90;;;;;;5089239;28;20056;-74
2021/12/11 01:37:44;;;;;;;52.20;23.88;;;-0.90;99.90;;;;;;5089145;28;20052;-74
2021/12/11 01:40:14;;;;;;;47.80;22.77;;;-0.90;99.90;;;;;;5089292;28;20039;-74
2021/12/11 01:42:42;;;;;;;42.55;22.10;;;-0.90;99.90;;;;;;5089311;28;20079;-74
2021/12/11 01:45:11;;;;;;;44.85;22.40;;;-0.90;99.90;;;;;;5089697;28;20407;-74
2021/12/11 01:47:39;;;;;;;42.92;21.65;;;-0.90;99.90;;;;;;5089117;28;20456;-74
2021/12/11 01:50:12;;;;;;;41.25;20.75;;;-0.80;99.90;;;;;;5089492;28;20462;-74
2021/12/11 01:52:53;;;;;;;37.42;18.77;;;-0.80;99.90;;;;;;5088997;28;20098;-74
2021/12/11 01:55:31;;;;;;;34.33;16.95;;;-0.80;99.90;;;;;;5097340;28;20047;-74
2021/12/11 01:57:57;;;;;;;32.78;18.02;;;-0.70;99.90;;;;;;5092678;28;20047;-74
2021/12/11 02:00:46;;;;;;;43.25;27.73;;;-0.70;99.90;;;;;;5091205;28;20519;-74
2021/12/11 02:03:18;;;;;;;43.28;28.83;;;-0.60;99.90;;;;;;5090703;28;20418;-74
2021/12/11 02:05:45;;;;;;;40.70;21.90;;;-0.50;99.90;;;;;;5091701;28;20063;-73
2021/12/11 02:08:19;;;;;;;34.90;19.38;;;-0.50;99.90;;;;;;5110531;28;20703;-74
2021/12/11 02:10:59;;;;;;;;;;;-0.50;99.90;;;;;;5092358;28;20380;-74
2021/12/11 02:13:41;;;;;;;45.30;22.20;;;-0.40;99.90;;;;;;5092332;28;19926;-74
2021/12/11 02:16:19;;;;;;;59.95;33.78;;;-0.40;99.90;;;;;;5090582;28;20477;-74
2021/12/11 02:18:47;;;;;;;51.97;32.42;;;-0.40;99.90;;;;;;5108601;28;20929;-74
2021/12/11 02:21:24;;;;;;;50.10;30.63;;;-0.40;99.90;;;;;;5090685;28;20781;-74
2021/12/11 02:24:04;;;;;;;35.30;20.50;;;-0.40;99.90;;;;;;5091591;28;20068;-74
2021/12/11 02:26:32;;;;;;;33.97;18.17;;;-0.30;99.90;;;;;;5110088;28;20054;-74
2021/12/11 02:29:27;;;;;;;32.10;17.65;;;-0.20;99.90;;;;;;5091952;28;20045;-74
2021/12/11 02:32:04;;;;;;;30.20;16.95;;;-0.20;99.90;;;;;;5110123;28;20797;-74
2021/12/11 02:34:44;;;;;;;39.65;26.75;;;-0.20;99.90;;;;;;5090609;28;20446;-74
2021/12/11 02:37:22;;;;;;;42.15;28.23;;;-0.10;99.90;;;;;;5083241;28;20424;-74
2021/12/11 02:39:56;;;;;;;48.70;29.85;;;-0.10;99.90;;;;;;5108693;28;20492;-74
2021/12/11 02:42:30;;;;;;;46.97;29.75;;;-0.10;99.90;;;;;;5073448;28;20412;-74
2021/12/11 02:45:01;;;;;;;39.75;27.60;;;0.00;99.90;;;;;;5108709;28;20400;-75
2021/12/11 02:47:33;;;;;;;39.60;27.77;;;0.00;99.90;;;;;;5090052;28;20396;-74
2021/12/11 02:50:09;;;;;;;42.10;28.23;;;0.00;99.90;;;;;;5108568;28;20412;-75
2021/12/11 02:52:49;;;;;;;44.78;29.27;;;0.00;99.90;;;;;;5090192;28;20415;-75
2021/12/11 02:55:24;;;;;;;40.28;26.88;;;0.00;99.90;;;;;;5108143;28;20452;-75
2021/12/11 02:57:56;;;;;;;40.72;28.08;;;0.00;99.90;;;;;;5090036;28;20977;-74
2021/12/11 03:00:24;;;;;;;46.58;29.73;;;0.00;99.90;;;;;;5108334;28;20404;-74
2021/12/11 03:03:01;;;;;;;45.78;29.63;;;0.00;99.90;;;;;;5089995;28;20457;-74
2021/12/11 03:05:37;;;;;;;38.65;26.65;;;0.00;99.90;;;;;;5108653;28;20401;-75
2021/12/11 03:08:05;;;;;;;45.47;29.92;;;0.10;99.90;;;;;;5072798;28;20771;-74
2021/12/11 03:10:33;;;;;;;46.90;29.83;;;0.10;99.90;;;;;;5086467;28;20522;-74
2021/12/11 03:12:58;;;;;;;48.60;30.47;;;0.10;99.90;;;;;;5088234;28;20405;-75
2021/12/11 03:15:25;;;;;;;44.23;29.00;;;0.10;99.90;;;;;;5069426;28;20429;-75
2021/12/11 03:17:51;;;;;;;50.58;30.63;;;0.10;99.90;;;;;;5086743;28;20772;-74
2021/12/11 03:20:20;;;;;;;44.70;29.55;;;0.10;99.90;;;;;;5088183;28;20431;-75
2021/12/11 03:22:46;;;;;;;48.47;30.70;;;0.10;99.90;;;;;;5087809;28;20402;-74
2021/12/11 03:25:25;;;;;;;48.00;31.00;;;0.10;99.90;;;;;;5087968;28;20406;-74
2021/12/11 03:27:51;;;;;;;53.63;32.47;;;0.20;99.90;;;;;;5087205;28;20900;-74
2021/12/11 03:30:22;;;;;;;52.47;31.73;;;0.20;99.90;;;;;;5085787;28;20413;-74
2021/12/11 03:32:57;;;;;;;54.53;32.10;;;0.20;99.90;;;;;;5086673;28;20780;-75
2021/12/11 03:35:23;;;;;;;55.92;33.08;;;0.20;99.90;;;;;;5085470;28;20435;-74
2021/12/11 03:37:49;;;;;;;61.20;34.38;;;0.30;99.90;;;;;;5086685;28;20398;-74
2021/12/11 03:40:16;;;;;;;62.10;34.67;;;0.30;99.90;;;;;;5086630;28;20846;-74
2021/12/11 03:42:48;;;;;;;61.53;35.83;;;0.30;99.90;;;;;;5086408;28;20919;-75
2021/12/11 03:45:23;;;;;;;63.10;36.05;;;0.30;99.90;;;;;;5092512;28;20404;-74
2021/12/11 03:47:55;;;;;;;61.27;36.00;;;0.30;99.90;;;;;;5092868;28;20400;-74
2021/12/11 03:50:22;;;;;;;70.32;39.42;;;0.30;99.90;;;;;;5111080;28;20406;-74
2021/12/11 03:52:52;;;;;;;62.70;36.50;;;0.30;99.90;;;;;;5111518;28;20400;-75
2021/12/11 03:55:25;;;;;;;65.90;38.07;;;0.30;99.90;;;;;;5093319;28;20424;-75
2021/12/11 03:57:57;;;;;;;61.55;35.80;;;0.30;99.90;;;;;;5093558;28;20417;-74
2021/12/11 04:00:28;;;;;;;57.92;35.35;;;0.30;99.90;;;;;;5093751;28;20435;-74
2021/12/11 04:03:02;;;;;;;63.65;37.85;;;0.20;99.90;;;;;;5111634;28;20397;-74
2021/12/11 04:05:28;;;;;;;68.50;37.97;;;0.20;99.90;;;;;;5111429;28;20400;-74
2021/12/11 04:07:54;;;;;;;59.90;36.13;;;0.20;99.90;;;;;;5092857;28;20400;-74
2021/12/11 04:10:20;;;;;;;66.13;37.33;;;0.20;99.90;;;;;;5093394;28;20396;-75
2021/12/11 04:12:50;;;;;;;65.43;38.45;;;0.20;99.90;;;;;;5093029;28;20401;-75
2021/12/11 04:15:16;;;;;;;66.23;39.20;;;0.20;99.90;;;;;;5093295;28;20428;-74
2021/12/11 04:17:42;;;;;;;64.53;38.55;;;0.20;99.90;;;;;;5092863;28;20423;-75
2021/12/11 04:20:22;;;;;;;62.33;38.10;;;0.20;99.90;;;;;;5111215;28;20403;-75
2021/12/11 04:22:48;;;;;;;65.57;39.15;;;0.20;99.90;;;;;;5092768;28;20389;-75
2021/12/11 04:25:16;;;;;;;71.55;40.80;;;0.20;99.90;;;;;;5111085;28;20453;-75
2021/12/11 04:27:41;;;;;;;72.80;40.20;;;0.20;99.90;;;;;;5110725;28;20403;-75
2021/12/11 04:30:10;;;;;;;72.20;41.10;;;0.10;99.90;;;;;;5092656;28;20479;-75
2021/12/11 04:32:37;;;;;;;75.13;40.13;;;0.10;99.90;;;;;;5092823;28;20435;-75
2021/12/11 04:35:06;;;;;;;85.63;41.92;;;0.10;99.90;;;;;;5075709;28;20425;-74
2021/12/11 04:37:34;;;;;;;65.95;37.10;;;0.00;99.90;;;;;;5092815;28;20405;-75
2021/12/11 04:40:07;;;;;;;71.30;39.03;;;0.00;99.90;;;;;;5110990;28;20429;-74
2021/12/11 04:45:01;;;;;;;74.22;39.67;;;-0.10;99.90;;;;;;5089226;28;20409;-75
2021/12/11 04:47:36;;;;;;;70.50;38.30;;;-0.10;99.90;;;;;;5089155;28;20430;-74
2021/12/11 04:50:11;;;;;;;72.50;40.13;;;-0.10;99.90;;;;;;5088907;28;20410;-75
2021/12/11 04:52:55;;;;;;;76.80;42.43;;;-0.10;99.90;;;;;;5089159;28;20775;-75
2021/12/11 04:58:10;;;;;;;76.70;41.17;;;-0.10;99.90;;;;;;5089767;28;20414;-74
2021/12/11 05:06:20;;;;;;;76.93;41.10;;;0.00;99.90;;;;;;5090045;28;20495;-74
2021/12/11 05:11:32;;;;;;;86.88;42.90;;;0.10;99.90;;;;;;5089582;28;21068;-75
2021/12/11 05:13:58;;;;;;;75.82;41.47;;;0.10;99.90;;;;;;5089848;28;20426;-75
2021/12/11 05:16:23;;;;;;;74.57;41.50;;;0.10;99.90;;;;;;5089669;28;20522;-75
2021/12/11 05:18:51;;;;;;;80.07;42.60;;;0.10;99.90;;;;;;5089128;28;20497;-75
2021/12/11 05:21:19;;;;;;;67.53;39.58;;;0.10;99.90;;;;;;5088140;28;20504;-75
2021/12/11 05:23:47;;;;;;;74.32;41.58;;;0.10;99.90;;;;;;5089797;28;20397;-75
2021/12/11 05:26:12;;;;;;;79.50;42.22;;;0.10;99.90;;;;;;5088066;28;20768;-75
2021/12/11 05:28:39;;;;;;;79.05;42.22;;;0.20;99.90;;;;;;5089467;28;20394;-74
2021/12/11 05:31:07;;;;;;;74.43;40.95;;;0.20;99.90;;;;;;5088802;28;20405;-75
2021/12/11 05:33:34;;;;;;;78.88;42.65;;;0.20;99.90;;;;;;5087148;28;20413;-75
2021/12/11 05:36:01;;;;;;;72.83;40.33;;;0.20;99.90;;;;;;5069995;28;21048;-75
2021/12/11 05:38:27;;;;;;;69.13;40.45;;;0.20;99.90;;;;;;5088574;28;20394;-74
2021/12/11 05:40:59;;;;;;;78.53;42.25;;;0.20;99.90;;;;;;5086623;28;20475;-75
2021/12/11 05:43:26;;;;;;;69.88;40.60;;;0.30;99.90;;;;;;5087780;28;20425;-74
2021/12/11 05:45:52;;;;;;;69.68;41.47;;;0.30;99.90;;;;;;5091275;28;20406;-74
2021/12/11 05:48:18;;;;;;;73.77;43.03;;;0.40;99.90;;;;;;5091332;28;20396;-74
2021/12/11 05:50:48;;;;;;;78.83;43.00;;;0.40;99.90;;;;;;5108785;28;20404;-74
2021/12/11 05:53:16;;;;;;;78.10;43.13;;;0.40;99.90;;;;;;5091394;28;21171;-74
2021/12/11 05:55:43;;;;;;;73.78;41.78;;;0.40;99.90;;;;;;5090875;28;20424;-74
2021/12/11 05:58:13;;;;;;;72.25;40.70;;;0.40;99.90;;;;;;5109388;28;20796;-74
2021/12/11 06:00:45;;;;;;;78.97;44.42;;;0.50;99.90;;;;;;5090910;28;20440;-75
2021/12/11 06:03:12;;;;;;;78.28;42.67;;;0.50;99.90;;;;;;5108973;28;20404;-73
2021/12/11 06:05:39;;;;;;;79.40;44.07;;;0.50;99.90;;;;;;5108924;28;20407;-74
2021/12/11 06:08:06;;;;;;;85.72;44.97;;;0.50;99.90;;;;;;5090996;28;20397;-74
2021/12/11 06:10:33;;;;;;;79.65;43.25;;;0.60;99.90;;;;;;5109014;28;20396;-74
2021/12/11 06:13:01;;;;;;;81.60;44.28;;;0.50;99.90;;;;;;5091179;28;20404;-74
2021/12/11 06:15:27;;;;;;;79.78;43.42;;;0.60;99.90;;;;;;5108715;28;20420;-74
2021/12/11 06:17:53;;;;;;;85.90;45.58;;;0.60;99.90;;;;;;5108941;28;20869;-74
2021/12/11 06:20:23;;;;;;;85.35;44.83;;;0.60;99.90;;;;;;5074002;28;20439;-74
2021/12/11 06:22:49;;;;;;;80.38;43.67;;;0.60;99.90;;;;;;5073418;28;20462;-74
2021/12/11 06:25:29;;;;;;;74.53;43.08;;;0.60;99.90;;;;;;5108427;28;20394;-74
2021/12/11 06:27:55;;;;;;;80.45;43.75;;;0.60;99.90;;;;;;5073947;28;20396;-75
2021/12/11 06:30:22;;;;;;;76.00;42.65;;;0.60;99.90;;;;;;5108839;28;20396;-74
2021/12/11 06:32:49;;;;;;;75.32;42.00;;;0.60;99.90;;;;;;5073171;28;20408;-74
2021/12/11 06:35:35;;;;;;;82.50;44.50;;;0.60;99.90;;;;;;5090623;28;20850;-74
2021/12/11 06:38:04;;;;;;;73.93;42.60;;;0.60;99.90;;;;;;5090293;28;20404;-75
2021/12/11 06:40:30;;;;;;;76.15;43.20;;;0.60;99.90;;;;;;5073747;28;20406;-75
2021/12/11 06:42:56;;;;;;;74.40;43.22;;;0.60;99.90;;;;;;5073393;28;20472;-74
2021/12/11 06:45:25;;;;;;;73.23;42.60;;;0.50;99.90;;;;;;5108632;28;20802;-74
2021/12/11 06:47:51;;;;;;;73.65;41.10;;;0.50;99.90;;;;;;5090463;28;20463;-74
2021/12/11 06:50:18;;;;;;;66.78;39.95;;;0.50;99.90;;;;;;5073267;28;21216;-74
2021/12/11 06:52:45;;;;;;;67.17;39.60;;;0.40;99.90;;;;;;5090479;28;20396;-74
2021/12/11 06:55:12;;;;;;;68.15;40.45;;;0.40;99.90;;;;;;5090137;28;20525;-74
2021/12/11 06:57:37;;;;;;;70.75;40.85;;;0.30;99.90;;;;;;5090114;28;20404;-74
2021/12/11 07:00:05;;;;;;;76.72;43.47;;;0.30;99.90;;;;;;5090151;28;20984;-74
2021/12/11 07:02:31;;;;;;;84.75;45.65;;;0.20;99.90;;;;;;5090407;28;21124;-74
2021/12/11 07:04:57;;;;;;;85.53;45.65;;;0.20;99.90;;;;;;5073302;28;20400;-74
2021/12/11 07:07:24;;;;;;;81.23;42.87;;;0.20;99.90;;;;;;5072745;28;20404;-74
2021/12/11 07:09:52;;;;;;;78.07;43.65;;;0.10;99.90;;;;;;5090376;28;20412;-75
2021/12/11 07:12:19;;;;;;;78.20;44.70;;;0.10;99.90;;;;;;5089758;28;20602;-74
2021/12/11 07:14:46;;;;;;;78.00;43.13;;;0.10;99.90;;;;;;5089976;28;20404;-74
2021/12/11 07:17:12;;;;;;;80.70;45.30;;;0.10;99.90;;;;;;5073648;28;20460;-74
2021/12/11 07:19:38;;;;;;;85.65;45.60;;;0.10;99.90;;;;;;5093715;28;20468;-74
2021/12/11 07:22:05;;;;;;;85.55;45.72;;;0.10;99.90;;;;;;5111684;28;20392;-75
2021/12/11 07:24:42;;;;;;;80.63;45.15;;;0.00;99.90;;;;;;5094007;28;20396;-74
2021/12/11 07:27:09;;;;;;;91.40;47.67;;;0.00;99.90;;;;;;5093820;28;20429;-75
2021/12/11 07:29:36;;;;;;;88.50;47.67;;;0.00;99.90;;;;;;5111860;28;20392;-74
2021/12/11 07:32:02;;;;;;;82.10;45.58;;;0.00;99.90;;;;;;5111879;28;20409;-75
2021/12/11 07:34:28;;;;;;;87.50;47.05;;;0.00;99.90;;;;;;5093767;28;20556;-75
2021/12/11 07:36:55;;;;;;;87.35;47.75;;;-0.10;99.90;;;;;;5093490;28;20515;-75
2021/12/11 07:39:22;;;;;;;89.07;48.35;;;-0.10;99.90;;;;;;5093311;28;20410;-75
2021/12/11 07:41:49;;;;;;;87.35;47.20;;;-0.10;99.90;;;;;;5111367;28;20525;-74
2021/12/11 07:44:15;;;;;;;83.65;46.28;;;-0.10;99.90;;;;;;5109148;27;21172;-74
2021/12/11 07:46:41;;;;;;;83.85;46.30;;;-0.10;99.90;;;;;;5074572;28;20404;-75
2021/12/11 07:49:07;;;;;;;90.88;47.67;;;-0.20;99.90;;;;;;5110264;28;20453;-74
2021/12/11 07:51:36;;;;;;;89.17;47.80;;;-0.20;99.90;;;;;;5090782;28;20452;-74
2021/12/11 07:54:03;;;;;;;85.97;48.03;;;-0.20;99.90;;;;;;5092076;28;20407;-75
2021/12/11 07:56:29;;;;;;;85.53;46.25;;;-0.20;99.90;;;;;;5074514;28;20475;-74
2021/12/11 07:58:59;;;;;;;87.70;47.53;;;-0.20;99.90;;;;;;5088296;28;20822;-75
2021/12/11 08:01:26;;;;;;;89.32;49.42;;;-0.20;99.90;;;;;;5109633;28;20411;-74
2021/12/11 08:03:51;;;;;;;89.10;49.00;;;-0.20;99.90;;;;;;5091569;28;20488;-73
2021/12/11 08:06:17;;;;;;;84.97;47.15;;;-0.20;99.90;;;;;;5109762;28;20483;-74
2021/12/11 08:08:44;;;;;;;87.78;48.38;;;-0.20;99.90;;;;;;5088217;28;20986;-73
2021/12/11 08:11:14;;;;;;;78.63;45.75;;;-0.20;99.90;;;;;;5089494;28;21313;-74
2021/12/11 08:13:46;;;;;;;76.07;45.17;;;-0.20;99.90;;;;;;5089458;28;20896;-73
2021/12/11 08:16:15;;;;;;;81.15;46.25;;;-0.20;99.90;;;;;;5086473;28;20901;-74
2021/12/11 08:18:40;;;;;;;83.72;46.95;;;-0.20;99.90;;;;;;5085115;28;20410;-75
2021/12/11 08:21:06;;;;;;;76.43;45.50;;;-0.20;99.90;;;;;;5087327;28;20401;-75
2021/12/11 08:23:32;;;;;;;81.45;47.08;;;-0.20;99.90;;;;;;5066785;28;20743;-74
2021/12/11 08:25:59;;;;;;;78.00;45.97;;;-0.20;99.90;;;;;;5071416;28;20502;-75
2021/12/11 08:28:31;;;;;;;79.63;46.20;;;-0.10;99.90;;;;;;5086571;28;20921;-74
2021/12/11 08:30:58;;;;;;;77.18;45.78;;;-0.10;99.90;;;;;;5070284;28;20431;-75
2021/12/11 08:33:25;;;;;;;76.40;44.65;;;-0.10;99.90;;;;;;5089365;28;20401;-73
2021/12/11 08:35:52;;;;;;;73.15;43.67;;;-0.10;99.90;;;;;;5084571;28;20427;-74
2021/12/11 08:38:18;;;;;;;74.65;46.47;;;-0.10;99.90;;;;;;5052633;28;20422;-71
2021/12/11 08:40:50;;;;;;;78.72;47.22;;;-0.10;99.90;;;;;;5072224;28;20413;-72
2021/12/11 08:43:18;;;;;;;78.93;46.95;;;-0.10;99.90;;;;;;5090910;28;20425;-72
2021/12/11 08:45:57;;;;;;;72.53;45.78;;;-0.10;99.90;;;;;;5087043;28;20430;-73
2021/12/11 08:48:26;;;;;;;75.70;45.40;;;0.00;99.90;;;;;;5087112;28;20496;-73
2021/12/11 08:51:01;;;;;;;72.78;44.80;;;0.00;99.90;;;;;;5085479;28;20406;-73
2021/12/11 08:53:28;;;;;;;78.73;45.40;;;0.00;99.90;;;;;;5089255;28;20409;-73
2021/12/11 08:55:55;;;;;;;75.43;44.33;;;0.10;99.90;;;;;;5072479;28;20862;-73
2021/12/11 08:58:24;;;;;;;71.60;44.60;;;0.10;99.90;;;;;;5090117;28;20405;-73
2021/12/11 09:00:58;;;;;;;69.93;43.45;;;0.10;99.90;;;;;;5083995;28;20417;-73
2021/12/11 09:03:30;;;;;;;70.65;43.78;;;0.20;99.90;;;;;;5080700;28;20410;-73
2021/12/11 09:06:07;;;;;;;75.65;45.65;;;0.20;99.90;;;;;;5089923;28;20405;-73
2021/12/11 09:08:52;;;;;;;74.00;44.93;;;0.20;99.90;;;;;;5088682;28;20402;-74
2021/12/11 09:11:25;;;;;;;71.88;44.22;;;0.20;99.90;;;;;;5071661;28;20448;-73
2021/12/11 09:13:57;;;;;;;72.75;45.60;;;0.30;99.90;;;;;;5088441;28;20466;-73
2021/12/11 09:16:37;;;;;;;70.10;44.08;;;0.30;99.90;;;;;;5089528;28;20421;-73
2021/12/11 09:19:21;;;;;;;69.53;43.70;;;0.40;99.90;;;;;;5089686;28;20413;-73
2021/12/11 09:22:02;;;;;;;75.53;46.22;;;0.40;99.90;;;;;;5089713;28;20405;-73
2021/12/11 09:24:57;;;;;;;69.85;43.25;;;0.40;99.90;;;;;;5070545;28;20414;-73
2021/12/11 09:27:26;;;;;;;69.45;42.60;;;0.50;99.90;;;;;;5051755;28;20478;-73
2021/12/11 09:30:00;;;;;;;69.40;42.87;;;0.60;99.90;;;;;;5069930;28;20414;-74
2021/12/11 09:32:34;;;;;;;66.82;41.30;;;0.70;99.90;;;;;;5086672;28;20402;-74
2021/12/11 09:35:16;;;;;;;61.47;39.22;;;0.70;99.90;;;;;;5084493;28;20429;-74
2021/12/11 09:37:44;;;;;;;63.83;39.95;;;0.80;99.90;;;;;;5085799;28;20513;-74
2021/12/11 09:40:25;;;;;;;61.60;39.93;;;0.90;99.90;;;;;;5082122;28;20419;-74
2021/12/11 09:42:51;;;;;;;58.85;38.20;;;1.10;99.90;;;;;;5086536;28;20479;-73
2021/12/11 09:45:21;;;;;;;56.53;38.33;;;1.20;99.90;;;;;;5085762;28;20920;-74
2021/12/11 09:47:53;;;;;;;55.07;36.70;;;1.20;99.90;;;;;;5086536;28;20775;-73
2021/12/11 09:50:31;;;;;;;56.05;35.90;;;1.30;99.90;;;;;;5086327;28;20501;-74
2021/12/11 09:52:57;;;;;;;54.75;36.92;;;1.40;99.90;;;;;;5069310;28;20928;-72
2021/12/11 09:55:31;;;;;;;54.75;35.60;;;1.40;99.90;;;;;;5087474;28;20447;-72
2021/12/11 09:58:02;;;;;;;52.37;35.27;;;1.50;99.90;;;;;;5087083;28;20505;-73
2021/12/11 10:00:30;;;;;;;53.97;35.67;;;1.60;99.90;;;;;;5085602;28;20493;-73
2021/12/11 10:02:56;;;;;;;55.00;36.25;;;1.60;99.90;;;;;;5087797;28;20394;-72
2021/12/11 10:05:31;;;;;;;53.17;34.83;;;1.80;99.90;;;;;;5087219;28;20405;-71
2021/12/11 10:08:27;;;;;;;49.67;32.15;;;1.80;99.90;;;;;;5100971;28;20481;-71
2021/12/11 10:11:17;;;;;;;48.30;31.40;;;1.80;99.90;;;;;;5107770;28;20758;-71
2021/12/11 10:13:54;;;;;;;44.97;30.13;;;1.90;99.90;;;;;;5089264;28;20986;-72
2021/12/11 10:16:23;;;;;;;47.25;31.38;;;1.90;99.90;;;;;;5089928;28;20443;-72
2021/12/11 10:18:50;;;;;;;48.23;31.67;;;1.90;99.90;;;;;;5086942;28;20508;-72
2021/12/11 10:21:24;;;;;;;41.90;28.75;;;1.90;99.90;;;;;;5086539;28;20532;-72
2021/12/11 10:23:53;;;;;;;44.33;30.35;;;1.90;99.90;;;;;;5069428;28;20405;-72
2021/12/11 10:26:22;;;;;;;43.80;29.42;;;2.00;99.90;;;;;;5095206;28;20415;-72
2021/12/11 10:28:51;;;;;;;40.75;27.05;;;2.10;99.90;;;;;;5089899;28;20412;-72
2021/12/11 10:31:26;;;;;;;42.15;28.75;;;2.20;99.90;;;;;;5089465;28;20405;-72
2021/12/11 10:33:54;;;;;;;36.95;27.08;;;2.30;99.90;;;;;;5089689;28;20420;-72
2021/12/11 10:36:25;;;;;;;38.40;26.77;;;2.20;99.90;;;;;;5088927;28;20504;-73
2021/12/11 10:38:55;;;;;;;40.95;28.80;;;2.20;99.90;;;;;;5089654;28;20491;-73
2021/12/11 10:41:21;;;;;;;46.58;31.55;;;2.20;99.90;;;;;;5107775;28;20464;-73
2021/12/11 10:43:55;;;;;;;44.33;29.65;;;2.10;99.90;;;;;;5107286;28;20423;-73
2021/12/11 10:46:25;;;;;;;42.85;29.33;;;2.10;99.90;;;;;;5106822;28;20408;-73
2021/12/11 10:48:52;;;;;;;43.22;30.23;;;2.00;99.90;;;;;;5088908;28;20436;-73
2021/12/11 10:51:25;;;;;;;43.70;29.67;;;2.00;99.90;;;;;;5107008;28;20420;-72
2021/12/11 10:53:52;;;;;;;44.13;28.30;;;2.10;99.90;;;;;;5106258;28;20420;-75
2021/12/11 10:56:20;;;;;;;39.15;27.83;;;2.30;99.90;;;;;;5107748;28;20436;-72
2021/12/11 10:58:50;;;;;;;39.75;27.63;;;2.50;99.90;;;;;;5072849;28;20400;-73
2021/12/11 11:01:29;;;;;;;39.20;27.15;;;2.80;99.90;;;;;;5106974;28;20400;-75
2021/12/11 11:04:03;;;;;;;37.75;25.75;;;3.00;99.90;;;;;;5088715;28;20423;-72
2021/12/11 11:06:29;;;;;;;34.90;25.35;;;3.20;99.90;;;;;;5107053;28;20419;-72
2021/12/11 11:08:56;;;;;;;35.10;24.30;;;3.40;99.90;;;;;;5090186;28;20427;-73
2021/12/11 11:11:25;;;;;;;30.42;21.80;;;3.70;99.90;;;;;;5090647;28;20445;-72
2021/12/11 11:13:51;;;;;;;32.63;23.70;;;4.20;99.90;;;;;;5108011;28;20879;-72
2021/12/11 11:16:18;;;;;;;34.53;23.42;;;4.50;99.90;;;;;;5107645;28;20427;-74
2021/12/11 11:18:45;;;;;;;30.17;22.50;;;4.70;99.90;;;;;;5108622;28;20412;-72
2021/12/11 11:21:16;;;;;;;28.67;21.35;;;4.90;99.90;;;;;;5108037;28;20432;-73
2021/12/11 11:23:45;;;;;;;28.88;21.25;;;5.40;99.90;;;;;;5108389;28;20456;-73
2021/12/11 11:26:16;;;;;;;29.55;21.73;;;5.80;99.90;;;;;;5108142;28;20419;-73
2021/12/11 11:28:43;;;;;;;31.10;21.98;;;5.80;99.90;;;;;;5089564;28;20413;-73
2021/12/11 11:31:15;;;;;;;30.40;22.00;;;5.70;99.90;;;;;;5089697;28;20419;-73
2021/12/11 11:33:42;;;;;;;29.30;21.40;;;5.40;99.90;;;;;;5108173;28;20614;-73
2021/12/11 11:36:11;;;;;;;33.90;22.90;;;5.10;99.90;;;;;;5107990;28;20439;-72
2021/12/11 11:38:41;;;;;;;32.88;23.50;;;4.80;99.90;;;;;;5089504;28;20412;-72
2021/12/11 11:41:12;;;;;;;32.03;22.75;;;4.70;99.90;;;;;;5107005;28;20956;-73
2021/12/11 11:43:39;;;;;;;34.30;24.20;;;4.50;99.90;;;;;;5103297;28;20453;-72
2021/12/11 11:46:06;;;;;;;33.90;24.80;;;4.40;99.90;;;;;;5107161;28;20489;-72
2021/12/11 11:48:35;;;;;;;33.10;23.77;;;4.30;99.90;;;;;;5106666;28;20408;-72
2021/12/11 11:51:06;;;;;;;35.47;25.03;;;4.20;99.90;;;;;;5107890;28;20446;-72
2021/12/11 11:53:32;;;;;;;33.88;23.88;;;4.10;99.90;;;;;;5086383;28;20410;-72
2021/12/11 11:56:02;;;;;;;39.22;25.48;;;4.10;99.90;;;;;;5087784;28;20428;-72
2021/12/11 11:58:30;;;;;;;34.53;25.52;;;4.10;99.90;;;;;;5087619;28;20402;-72
2021/12/11 12:01:01;;;;;;;37.72;24.90;;;4.10;99.90;;;;;;5102475;28;20405;-72
2021/12/11 12:03:28;;;;;;;34.08;25.65;;;4.10;99.90;;;;;;5100583;28;20419;-72
2021/12/11 12:05:58;;;;;;;39.03;26.17;;;4.10;99.90;;;;;;5109388;28;21330;-72
2021/12/11 12:08:24;;;;;;;37.90;25.92;;;4.10;99.90;;;;;;5105552;28;20400;-72
2021/12/11 12:10:52;;;;;;;36.53;26.05;;;4.10;99.90;;;;;;5091731;28;21214;-72
2021/12/11 12:13:22;;;;;;;39.90;26.52;;;4.20;99.90;;;;;;5090396;28;20501;-72
2021/12/11 12:15:53;;;;;;;35.23;25.87;;;4.50;99.90;;;;;;5109725;28;20423;-73
2021/12/11 12:18:21;;;;;;;37.72;26.30;;;4.70;99.90;;;;;;5109565;28;20408;-73
2021/12/11 12:20:49;;;;;;;37.65;26.08;;;4.80;99.90;;;;;;5110003;28;20405;-73
2021/12/11 12:23:15;;;;;;;37.88;26.23;;;4.90;99.90;;;;;;5091588;28;20400;-73
2021/12/11 12:25:43;;;;;;;35.20;25.88;;;4.90;99.90;;;;;;5088264;28;20547;-73
2021/12/11 12:28:09;;;;;;;34.05;25.17;;;5.00;99.90;;;;;;5087589;28;20765;-73
2021/12/11 12:30:44;;;;;;;32.17;20.48;;;5.20;99.90;;;;;;5107253;28;20516;-73
2021/12/11 12:33:12;;;;;;;34.53;21.17;;;5.40;99.90;;;;;;5107260;28;20062;-73
2021/12/11 12:35:38;;;;;;;36.47;24.58;;;5.40;99.90;;;;;;5109622;28;20491;-74
2021/12/11 12:38:08;;;;;;;36.88;26.27;;;5.20;99.90;;;;;;5090662;28;20414;-73
2021/12/11 12:40:45;;;;;;;37.75;26.42;;;5.00;99.90;;;;;;5092014;28;20495;-73
2021/12/11 12:43:42;;;;;;;38.03;25.40;;;4.80;99.90;;;;;;5110238;28;20409;-73
2021/12/11 12:46:06;;;;;;;38.03;26.83;;;4.60;99.90;;;;;;5110186;28;20485;-72
2021/12/11 12:48:31;;;;;;;36.15;25.38;;;4.50;99.90;;;;;;5110385;28;20850;-73
2021/12/11 12:51:02;;;;;;;37.22;26.10;;;4.40;99.90;;;;;;5110641;28;20472;-73
2021/12/11 12:53:34;;;;;;;35.95;26.25;;;4.30;99.90;;;;;;5075330;28;20404;-72
2021/12/11 12:56:16;;;;;;;38.95;27.25;;;4.20;99.90;;;;;;5110000;28;20427;-72
2021/12/11 12:58:45;;;;;;;40.05;28.02;;;4.10;99.90;;;;;;5092504;28;21033;-73
2021/12/11 13:01:18;;;;;;;36.83;22.65;;;4.00;99.90;;;;;;5075370;28;20051;-73
2021/12/11 13:03:45;;;;;;;;;;;3.90;99.90;;;;;;5112265;28;20063;-73